sensor_id;sensor_type;location;lat;lon;timestamp;P1;P2;P0
26185;PMS7003;20067;48.764;9.176;2023-03-05T00:02:20;30.50;23.00;12.00
26185;PMS7003;20067;48.764;9.176;2023-03-05T00:04:46;34.00;27.25;15.75
26185;PMS7003;20067;48.764;9.176;2023-03-05T00:07:12;38.75;32.00;18.75
26185;PMS7003;20067;48.764;9.176;2023-03-05T00:09:38;31.00;26.50;12.50
26185;PMS7003;20067;48.764;9.176;2023-03-05T00:12:04;34.25;28.00;12.50
26185;PMS7003;20067;48.764;9.176;2023-03-05T00:14:30;30.50;27.00;13.00
26185;PMS7003;20067;48.764;9.176;2023-03-05T00:16:56;34.50;26.00;11.50
26185;PMS7003;20067;48.764;9.176;2023-03-05T00:19:22;37.00;27.75;13.00
26185;PMS7003;20067;48.764;9.176;2023-03-05T00:21:47;36.75;31.75;13.50
26185;PMS7003;20067;48.764;9.176;2023-03-05T00:24:14;28.00;22.75;10.25
26185;PMS7003;20067;48.764;9.176;2023-03-05T00:26:42;28.75;23.25;12.00
26185;PMS7003;20067;48.764;9.176;2023-03-05T00:29:08;32.25;28.25;14.00
26185;PMS7003;20067;48.764;9.176;2023-03-05T00:31:38;30.75;25.75;12.00
26185;PMS7003;20067;48.764;9.176;2023-03-05T00:34:05;31.75;28.75;13.00
26185;PMS7003;20067;48.764;9.176;2023-03-05T00:36:33;34.50;27.25;16.25
26185;PMS7003;20067;48.764;9.176;2023-03-05T00:39:03;40.00;29.00;14.75
26185;PMS7003;20067;48.764;9.176;2023-03-05T00:41:28;33.25;27.50;14.00
26185;PMS7003;20067;48.764;9.176;2023-03-05T00:43:54;34.50;28.25;14.00
26185;PMS7003;20067;48.764;9.176;2023-03-05T00:46:20;38.00;34.75;15.00
26185;PMS7003;20067;48.764;9.176;2023-03-05T00:48:45;31.75;24.50;14.00
26185;PMS7003;20067;48.764;9.176;2023-03-05T00:51:11;25.25;24.25;14.50
26185;PMS7003;20067;48.764;9.176;2023-03-05T00:53:37;31.25;28.00;14.00
26185;PMS7003;20067;48.764;9.176;2023-03-05T00:56:03;32.00;28.00;14.00
26185;PMS7003;20067;48.764;9.176;2023-03-05T00:58:28;33.25;24.25;12.00
26185;PMS7003;20067;48.764;9.176;2023-03-05T01:00:58;25.25;23.25;13.25
26185;PMS7003;20067;48.764;9.176;2023-03-05T01:03:24;28.75;25.75;12.50
26185;PMS7003;20067;48.764;9.176;2023-03-05T01:05:50;32.50;26.50;13.00
26185;PMS7003;20067;48.764;9.176;2023-03-05T01:08:16;27.75;23.75;12.25
26185;PMS7003;20067;48.764;9.176;2023-03-05T01:10:42;28.50;24.00;12.00
26185;PMS7003;20067;48.764;9.176;2023-03-05T01:13:07;33.00;27.00;13.25
26185;PMS7003;20067;48.764;9.176;2023-03-05T01:15:33;36.75;29.75;14.50
26185;PMS7003;20067;48.764;9.176;2023-03-05T01:17:59;30.50;26.50;12.50
26185;PMS7003;20067;48.764;9.176;2023-03-05T01:20:25;28.50;24.00;13.25
26185;PMS7003;20067;48.764;9.176;2023-03-05T01:22:50;31.50;28.00;14.00
26185;PMS7003;20067;48.764;9.176;2023-03-05T01:25:16;28.00;27.25;14.00
26185;PMS7003;20067;48.764;9.176;2023-03-05T01:27:43;24.50;21.25;10.00
26185;PMS7003;20067;48.764;9.176;2023-03-05T01:30:09;28.50;25.75;14.00
26185;PMS7003;20067;48.764;9.176;2023-03-05T01:32:36;36.00;25.00;14.00
26185;PMS7003;20067;48.764;9.176;2023-03-05T01:35:03;36.25;29.50;14.75
26185;PMS7003;20067;48.764;9.176;2023-03-05T01:37:29;22.50;22.00;10.00
26185;PMS7003;20067;48.764;9.176;2023-03-05T01:39:55;25.25;22.00;11.50
26185;PMS7003;20067;48.764;9.176;2023-03-05T01:42:21;31.00;27.75;11.50
26185;PMS7003;20067;48.764;9.176;2023-03-05T01:47:36;32.00;27.50;14.50
26185;PMS7003;20067;48.764;9.176;2023-03-05T01:50:03;21.75;21.00;8.00
26185;PMS7003;20067;48.764;9.176;2023-03-05T01:52:31;25.00;21.25;9.50
26185;PMS7003;20067;48.764;9.176;2023-03-05T01:55:05;28.50;25.75;13.50
26185;PMS7003;20067;48.764;9.176;2023-03-05T01:57:39;25.50;22.50;11.50
26185;PMS7003;20067;48.764;9.176;2023-03-05T02:00:14;26.00;21.00;9.00
26185;PMS7003;20067;48.764;9.176;2023-03-05T02:02:43;24.00;21.75;10.00
26185;PMS7003;20067;48.764;9.176;2023-03-05T02:05:18;28.00;24.00;13.00
26185;PMS7003;20067;48.764;9.176;2023-03-05T02:07:54;25.25;21.00;9.50
26185;PMS7003;20067;48.764;9.176;2023-03-05T02:10:31;23.25;21.75;11.00
26185;PMS7003;20067;48.764;9.176;2023-03-05T02:13:02;29.75;24.75;11.50
26185;PMS7003;20067;48.764;9.176;2023-03-05T02:15:32;32.75;23.75;11.50
26185;PMS7003;20067;48.764;9.176;2023-03-05T02:17:58;29.75;24.00;12.00
26185;PMS7003;20067;48.764;9.176;2023-03-05T02:20:27;28.00;22.25;12.00
26185;PMS7003;20067;48.764;9.176;2023-03-05T02:23:06;34.50;27.00;13.50
26185;PMS7003;20067;48.764;9.176;2023-03-05T02:25:31;26.50;25.50;12.00
26185;PMS7003;20067;48.764;9.176;2023-03-05T02:27:59;25.50;24.00;10.00
26185;PMS7003;20067;48.764;9.176;2023-03-05T02:30:34;27.00;24.50;14.00
26185;PMS7003;20067;48.764;9.176;2023-03-05T02:33:00;23.75;17.00;7.25
26185;PMS7003;20067;48.764;9.176;2023-03-05T02:35:26;24.25;23.75;12.00
26185;PMS7003;20067;48.764;9.176;2023-03-05T02:37:52;26.75;21.50;12.00
26185;PMS7003;20067;48.764;9.176;2023-03-05T02:40:17;34.00;28.75;15.00
26185;PMS7003;20067;48.764;9.176;2023-03-05T02:42:44;24.75;24.00;12.00
26185;PMS7003;20067;48.764;9.176;2023-03-05T02:45:10;27.00;23.75;12.00
26185;PMS7003;20067;48.764;9.176;2023-03-05T02:47:37;26.25;24.00;12.25
26185;PMS7003;20067;48.764;9.176;2023-03-05T02:50:04;25.25;18.00;9.50
26185;PMS7003;20067;48.764;9.176;2023-03-05T02:52:31;22.00;17.00;10.00
26185;PMS7003;20067;48.764;9.176;2023-03-05T02:54:57;23.50;23.00;11.00
26185;PMS7003;20067;48.764;9.176;2023-03-05T02:57:23;28.25;19.00;8.00
26185;PMS7003;20067;48.764;9.176;2023-03-05T02:59:49;28.00;22.75;12.00
26185;PMS7003;20067;48.764;9.176;2023-03-05T03:02:14;24.75;20.25;10.00
26185;PMS7003;20067;48.764;9.176;2023-03-05T03:04:41;19.75;16.75;9.50
26185;PMS7003;20067;48.764;9.176;2023-03-05T03:07:08;25.75;17.00;8.00
26185;PMS7003;20067;48.764;9.176;2023-03-05T03:09:34;16.75;16.50;7.00
26185;PMS7003;20067;48.764;9.176;2023-03-05T03:12:00;29.25;17.00;7.00
26185;PMS7003;20067;48.764;9.176;2023-03-05T03:14:29;16.00;16.00;5.00
26185;PMS7003;20067;48.764;9.176;2023-03-05T03:16:56;17.50;16.50;7.75
26185;PMS7003;20067;48.764;9.176;2023-03-05T03:19:23;24.50;18.50;7.25
26185;PMS7003;20067;48.764;9.176;2023-03-05T03:21:48;17.00;16.00;8.00
26185;PMS7003;20067;48.764;9.176;2023-03-05T03:24:14;24.50;21.75;9.00
26185;PMS7003;20067;48.764;9.176;2023-03-05T03:26:40;21.50;18.50;7.00
26185;PMS7003;20067;48.764;9.176;2023-03-05T03:29:05;26.25;21.25;9.25
26185;PMS7003;20067;48.764;9.176;2023-03-05T03:31:31;23.25;20.00;10.00
26185;PMS7003;20067;48.764;9.176;2023-03-05T03:33:57;17.00;16.00;7.00
26185;PMS7003;20067;48.764;9.176;2023-03-05T03:36:22;21.25;18.50;10.00
26185;PMS7003;20067;48.764;9.176;2023-03-05T03:38:48;25.75;18.75;9.25
26185;PMS7003;20067;48.764;9.176;2023-03-05T03:41:15;18.00;18.00;7.25
26185;PMS7003;20067;48.764;9.176;2023-03-05T03:43:40;27.00;23.00;9.00
26185;PMS7003;20067;48.764;9.176;2023-03-05T03:46:06;22.75;19.00;9.00
26185;PMS7003;20067;48.764;9.176;2023-03-05T03:48:32;26.25;18.00;8.25
26185;PMS7003;20067;48.764;9.176;2023-03-05T03:51:02;18.25;15.50;7.00
26185;PMS7003;20067;48.764;9.176;2023-03-05T03:53:29;24.00;18.00;9.00
26185;PMS7003;20067;48.764;9.176;2023-03-05T03:55:58;14.00;12.00;5.50
26185;PMS7003;20067;48.764;9.176;2023-03-05T03:58:23;21.00;18.00;7.00
26185;PMS7003;20067;48.764;9.176;2023-03-05T04:00:49;21.00;16.75;7.00
26185;PMS7003;20067;48.764;9.176;2023-03-05T04:03:15;15.75;14.00;6.50
26185;PMS7003;20067;48.764;9.176;2023-03-05T04:05:41;24.50;16.00;8.50
26185;PMS7003;20067;48.764;9.176;2023-03-05T04:08:06;18.00;15.50;6.50
26185;PMS7003;20067;48.764;9.176;2023-03-05T04:10:36;22.25;16.00;9.00
26185;PMS7003;20067;48.764;9.176;2023-03-05T04:13:03;17.25;14.00;7.50
26185;PMS7003;20067;48.764;9.176;2023-03-05T04:15:29;20.00;17.75;5.50
26185;PMS7003;20067;48.764;9.176;2023-03-05T04:17:55;20.75;18.50;5.50
26185;PMS7003;20067;48.764;9.176;2023-03-05T04:20:20;19.25;17.75;9.00
26185;PMS7003;20067;48.764;9.176;2023-03-05T04:22:46;20.00;15.25;6.00
26185;PMS7003;20067;48.764;9.176;2023-03-05T04:25:12;22.50;18.00;8.50
26185;PMS7003;20067;48.764;9.176;2023-03-05T04:27:37;22.00;17.25;7.50
26185;PMS7003;20067;48.764;9.176;2023-03-05T04:30:04;18.50;14.25;7.00
26185;PMS7003;20067;48.764;9.176;2023-03-05T04:32:30;16.75;16.75;7.00
26185;PMS7003;20067;48.764;9.176;2023-03-05T04:34:56;22.25;16.50;5.00
26185;PMS7003;20067;48.764;9.176;2023-03-05T04:37:22;21.50;17.50;7.50
26185;PMS7003;20067;48.764;9.176;2023-03-05T04:39:49;20.75;20.00;9.00
26185;PMS7003;20067;48.764;9.176;2023-03-05T04:42:15;23.00;19.50;9.00
26185;PMS7003;20067;48.764;9.176;2023-03-05T04:44:42;19.50;15.25;7.75
26185;PMS7003;20067;48.764;9.176;2023-03-05T04:47:07;25.00;18.50;7.00
26185;PMS7003;20067;48.764;9.176;2023-03-05T04:49:33;18.50;16.50;7.00
26185;PMS7003;20067;48.764;9.176;2023-03-05T04:51:59;27.50;24.75;10.00
26185;PMS7003;20067;48.764;9.176;2023-03-05T04:54:24;22.25;16.75;7.25
26185;PMS7003;20067;48.764;9.176;2023-03-05T04:56:50;21.00;16.00;7.00
26185;PMS7003;20067;48.764;9.176;2023-03-05T04:59:16;24.25;15.50;8.50
26185;PMS7003;20067;48.764;9.176;2023-03-05T05:01:41;19.00;17.75;8.75
26185;PMS7003;20067;48.764;9.176;2023-03-05T05:04:07;21.75;18.00;7.00
26185;PMS7003;20067;48.764;9.176;2023-03-05T05:06:33;20.00;16.50;7.00
26185;PMS7003;20067;48.764;9.176;2023-03-05T05:08:58;23.50;18.00;7.25
26185;PMS7003;20067;48.764;9.176;2023-03-05T05:11:24;19.75;16.25;7.00
26185;PMS7003;20067;48.764;9.176;2023-03-05T05:13:50;20.00;14.00;6.50
26185;PMS7003;20067;48.764;9.176;2023-03-05T05:16:15;19.25;14.00;7.00
26185;PMS7003;20067;48.764;9.176;2023-03-05T05:18:41;29.50;20.50;7.50
26185;PMS7003;20067;48.764;9.176;2023-03-05T05:21:07;23.00;18.50;8.00
26185;PMS7003;20067;48.764;9.176;2023-03-05T05:23:35;18.00;16.00;6.50
26185;PMS7003;20067;48.764;9.176;2023-03-05T05:26:01;21.50;17.75;8.25
26185;PMS7003;20067;48.764;9.176;2023-03-05T05:28:28;23.00;19.00;10.00
26185;PMS7003;20067;48.764;9.176;2023-03-05T05:30:54;25.50;20.25;8.75
26185;PMS7003;20067;48.764;9.176;2023-03-05T05:33:20;21.00;18.25;8.00
26185;PMS7003;20067;48.764;9.176;2023-03-05T05:35:46;21.25;16.00;7.00
26185;PMS7003;20067;48.764;9.176;2023-03-05T05:38:12;16.75;15.00;6.00
26185;PMS7003;20067;48.764;9.176;2023-03-05T05:40:38;19.50;17.25;9.00
26185;PMS7003;20067;48.764;9.176;2023-03-05T05:43:04;21.50;18.50;9.25
26185;PMS7003;20067;48.764;9.176;2023-03-05T05:45:30;21.25;16.00;7.00
26185;PMS7003;20067;48.764;9.176;2023-03-05T05:47:56;23.50;22.25;8.00
26185;PMS7003;20067;48.764;9.176;2023-03-05T05:50:21;16.00;15.00;8.00
26185;PMS7003;20067;48.764;9.176;2023-03-05T05:52:47;21.25;18.00;7.00
26185;PMS7003;20067;48.764;9.176;2023-03-05T05:55:14;22.75;19.75;8.50
26185;PMS7003;20067;48.764;9.176;2023-03-05T05:57:40;19.50;17.75;7.00
26185;PMS7003;20067;48.764;9.176;2023-03-05T06:00:07;20.25;18.75;9.00
26185;PMS7003;20067;48.764;9.176;2023-03-05T06:02:36;25.00;21.00;10.00
26185;PMS7003;20067;48.764;9.176;2023-03-05T06:05:03;27.75;22.75;11.00
26185;PMS7003;20067;48.764;9.176;2023-03-05T06:07:29;27.00;21.00;9.75
26185;PMS7003;20067;48.764;9.176;2023-03-05T06:09:55;21.50;19.00;12.00
26185;PMS7003;20067;48.764;9.176;2023-03-05T06:12:21;24.00;21.00;10.00
26185;PMS7003;20067;48.764;9.176;2023-03-05T06:14:47;30.25;21.75;9.50
26185;PMS7003;20067;48.764;9.176;2023-03-05T06:17:13;29.75;20.25;9.50
26185;PMS7003;20067;48.764;9.176;2023-03-05T06:19:38;30.00;25.25;10.00
26185;PMS7003;20067;48.764;9.176;2023-03-05T06:22:04;25.50;20.00;10.75
26185;PMS7003;20067;48.764;9.176;2023-03-05T06:24:30;29.50;25.75;12.00
26185;PMS7003;20067;48.764;9.176;2023-03-05T06:26:55;29.00;25.00;9.50
26185;PMS7003;20067;48.764;9.176;2023-03-05T06:29:21;18.00;18.00;6.50
26185;PMS7003;20067;48.764;9.176;2023-03-05T06:31:47;29.50;28.00;14.00
26185;PMS7003;20067;48.764;9.176;2023-03-05T06:34:12;22.75;20.75;8.50
26185;PMS7003;20067;48.764;9.176;2023-03-05T06:36:38;21.50;20.25;10.50
26185;PMS7003;20067;48.764;9.176;2023-03-05T06:39:04;26.50;21.25;9.75
26185;PMS7003;20067;48.764;9.176;2023-03-05T06:41:30;29.00;20.00;10.00
26185;PMS7003;20067;48.764;9.176;2023-03-05T06:43:58;25.75;23.00;9.75
26185;PMS7003;20067;48.764;9.176;2023-03-05T06:46:25;24.00;21.00;11.50
26185;PMS7003;20067;48.764;9.176;2023-03-05T06:48:54;22.75;19.50;9.75
26185;PMS7003;20067;48.764;9.176;2023-03-05T06:51:22;27.75;23.75;10.00
26185;PMS7003;20067;48.764;9.176;2023-03-05T06:53:49;22.25;17.75;8.75
26185;PMS7003;20067;48.764;9.176;2023-03-05T06:56:17;23.75;21.00;11.00
26185;PMS7003;20067;48.764;9.176;2023-03-05T06:58:44;22.75;19.75;9.25
26185;PMS7003;20067;48.764;9.176;2023-03-05T07:01:11;30.50;23.50;12.00
26185;PMS7003;20067;48.764;9.176;2023-03-05T07:03:38;23.00;22.50;10.50
26185;PMS7003;20067;48.764;9.176;2023-03-05T07:06:05;23.25;19.00;8.00
26185;PMS7003;20067;48.764;9.176;2023-03-05T07:08:36;27.00;21.25;10.00
26185;PMS7003;20067;48.764;9.176;2023-03-05T07:11:03;23.75;22.00;10.50
26185;PMS7003;20067;48.764;9.176;2023-03-05T07:13:34;28.75;21.25;10.00
26185;PMS7003;20067;48.764;9.176;2023-03-05T07:16:03;27.25;24.00;13.25
26185;PMS7003;20067;48.764;9.176;2023-03-05T07:18:30;25.50;22.50;10.00
26185;PMS7003;20067;48.764;9.176;2023-03-05T07:21:00;26.00;22.50;12.00
26185;PMS7003;20067;48.764;9.176;2023-03-05T07:23:30;24.50;20.25;9.50
26185;PMS7003;20067;48.764;9.176;2023-03-05T07:25:56;31.50;24.50;12.25
26185;PMS7003;20067;48.764;9.176;2023-03-05T07:28:24;26.50;20.75;11.25
26185;PMS7003;20067;48.764;9.176;2023-03-05T07:31:03;26.75;21.75;11.50
26185;PMS7003;20067;48.764;9.176;2023-03-05T07:33:31;28.50;24.00;12.00
26185;PMS7003;20067;48.764;9.176;2023-03-05T07:35:57;30.25;24.00;12.00
26185;PMS7003;20067;48.764;9.176;2023-03-05T07:38:23;29.00;21.25;11.50
26185;PMS7003;20067;48.764;9.176;2023-03-05T07:40:49;24.50;20.50;10.50
26185;PMS7003;20067;48.764;9.176;2023-03-05T07:43:15;27.25;24.00;12.00
26185;PMS7003;20067;48.764;9.176;2023-03-05T07:45:42;36.00;21.75;12.00
26185;PMS7003;20067;48.764;9.176;2023-03-05T07:48:11;23.50;18.00;9.00
26185;PMS7003;20067;48.764;9.176;2023-03-05T07:50:39;24.00;22.00;11.00
26185;PMS7003;20067;48.764;9.176;2023-03-05T07:53:05;22.00;19.00;8.00
26185;PMS7003;20067;48.764;9.176;2023-03-05T07:55:31;26.75;21.50;12.00
26185;PMS7003;20067;48.764;9.176;2023-03-05T07:57:56;23.00;20.25;11.50
26185;PMS7003;20067;48.764;9.176;2023-03-05T08:00:22;26.00;21.25;10.00
26185;PMS7003;20067;48.764;9.176;2023-03-05T08:02:48;22.75;21.00;10.00
26185;PMS7003;20067;48.764;9.176;2023-03-05T08:05:14;32.75;26.75;10.00
26185;PMS7003;20067;48.764;9.176;2023-03-05T08:07:40;28.25;25.25;12.50
26185;PMS7003;20067;48.764;9.176;2023-03-05T08:10:06;22.50;22.50;12.00
26185;PMS7003;20067;48.764;9.176;2023-03-05T08:12:32;33.25;22.00;11.00
26185;PMS7003;20067;48.764;9.176;2023-03-05T08:14:58;28.50;21.75;11.50
26185;PMS7003;20067;48.764;9.176;2023-03-05T08:17:24;28.00;22.75;10.00
26185;PMS7003;20067;48.764;9.176;2023-03-05T08:19:50;22.00;21.50;9.00
26185;PMS7003;20067;48.764;9.176;2023-03-05T08:22:15;29.00;21.50;8.50
26185;PMS7003;20067;48.764;9.176;2023-03-05T08:24:44;22.25;20.00;10.00
26185;PMS7003;20067;48.764;9.176;2023-03-05T08:27:10;31.00;22.25;12.00
26185;PMS7003;20067;48.764;9.176;2023-03-05T08:29:35;23.25;23.25;10.50
26185;PMS7003;20067;48.764;9.176;2023-03-05T08:32:01;25.25;21.75;11.50
26185;PMS7003;20067;48.764;9.176;2023-03-05T08:34:27;19.50;17.00;9.00
26185;PMS7003;20067;48.764;9.176;2023-03-05T08:36:52;26.75;21.00;10.50
26185;PMS7003;20067;48.764;9.176;2023-03-05T08:39:18;26.50;20.00;10.00
26185;PMS7003;20067;48.764;9.176;2023-03-05T08:41:44;23.50;21.00;10.00
26185;PMS7003;20067;48.764;9.176;2023-03-05T08:44:09;24.50;21.25;10.00
26185;PMS7003;20067;48.764;9.176;2023-03-05T08:46:37;29.00;23.00;11.00
26185;PMS7003;20067;48.764;9.176;2023-03-05T08:49:04;21.75;21.25;8.00
26185;PMS7003;20067;48.764;9.176;2023-03-05T08:51:31;23.50;19.75;11.50
26185;PMS7003;20067;48.764;9.176;2023-03-05T08:53:58;22.75;20.25;12.00
26185;PMS7003;20067;48.764;9.176;2023-03-05T08:56:24;22.25;18.00;9.25
26185;PMS7003;20067;48.764;9.176;2023-03-05T08:58:52;25.25;23.25;11.50
26185;PMS7003;20067;48.764;9.176;2023-03-05T09:01:18;24.25;22.75;10.00
26185;PMS7003;20067;48.764;9.176;2023-03-05T09:03:44;30.25;23.25;11.50
26185;PMS7003;20067;48.764;9.176;2023-03-05T09:06:09;27.00;24.25;10.00
26185;PMS7003;20067;48.764;9.176;2023-03-05T09:08:36;20.75;17.00;8.00
26185;PMS7003;20067;48.764;9.176;2023-03-05T09:11:03;26.50;22.00;10.00
26185;PMS7003;20067;48.764;9.176;2023-03-05T09:13:30;21.50;18.00;10.00
26185;PMS7003;20067;48.764;9.176;2023-03-05T09:16:00;28.25;24.50;11.50
26185;PMS7003;20067;48.764;9.176;2023-03-05T09:18:29;33.25;23.00;12.50
26185;PMS7003;20067;48.764;9.176;2023-03-05T09:20:55;25.50;23.50;10.00
26185;PMS7003;20067;48.764;9.176;2023-03-05T09:23:21;25.75;25.50;12.00
26185;PMS7003;20067;48.764;9.176;2023-03-05T09:25:47;33.75;27.25;12.25
26185;PMS7003;20067;48.764;9.176;2023-03-05T09:28:13;29.75;23.25;13.50
26185;PMS7003;20067;48.764;9.176;2023-03-05T09:30:39;27.75;25.00;11.50
26185;PMS7003;20067;48.764;9.176;2023-03-05T09:33:05;28.50;23.25;12.00
26185;PMS7003;20067;48.764;9.176;2023-03-05T09:35:33;27.25;18.50;10.00
26185;PMS7003;20067;48.764;9.176;2023-03-05T09:37:59;31.75;22.25;12.00
26185;PMS7003;20067;48.764;9.176;2023-03-05T09:40:25;28.75;21.00;8.50
26185;PMS7003;20067;48.764;9.176;2023-03-05T09:43:08;24.50;20.75;10.00
26185;PMS7003;20067;48.764;9.176;2023-03-05T09:45:56;29.25;22.75;11.50
26185;PMS7003;20067;48.764;9.176;2023-03-05T09:51:25;29.00;26.00;10.50
26185;PMS7003;20067;48.764;9.176;2023-03-05T09:53:59;29.25;23.75;12.00
26185;PMS7003;20067;48.764;9.176;2023-03-05T09:56:35;27.00;20.00;10.00
26185;PMS7003;20067;48.764;9.176;2023-03-05T10:02:13;28.00;22.50;12.00
26185;PMS7003;20067;48.764;9.176;2023-03-05T10:04:42;25.00;18.50;9.50
26185;PMS7003;20067;48.764;9.176;2023-03-05T10:07:20;31.50;25.00;12.00
26185;PMS7003;20067;48.764;9.176;2023-03-05T10:09:59;29.75;22.75;11.50
26185;PMS7003;20067;48.764;9.176;2023-03-05T10:12:36;25.50;21.00;10.50
26185;PMS7003;20067;48.764;9.176;2023-03-05T10:16:17;25.25;23.75;11.75
26185;PMS7003;20067;48.764;9.176;2023-03-05T10:18:35;34.00;26.00;14.00
26185;PMS7003;20067;48.764;9.176;2023-03-05T10:21:20;24.50;21.75;12.00
26185;PMS7003;20067;48.764;9.176;2023-03-05T10:23:59;23.00;22.25;11.00
26185;PMS7003;20067;48.764;9.176;2023-03-05T10:26:47;28.25;21.50;12.25
26185;PMS7003;20067;48.764;9.176;2023-03-05T10:29:33;32.50;30.50;13.75
26185;PMS7003;20067;48.764;9.176;2023-03-05T10:34:46;24.00;22.25;13.00
26185;PMS7003;20067;48.764;9.176;2023-03-05T10:40:18;27.00;26.75;13.00
26185;PMS7003;20067;48.764;9.176;2023-03-05T10:43:11;24.50;21.50;11.00
26185;PMS7003;20067;48.764;9.176;2023-03-05T10:45:51;29.50;27.75;14.75
26185;PMS7003;20067;48.764;9.176;2023-03-05T10:56:05;25.50;22.25;12.25
26185;PMS7003;20067;48.764;9.176;2023-03-05T10:58:31;30.75;27.25;14.75
26185;PMS7003;20067;48.764;9.176;2023-03-05T11:01:02;33.00;25.50;13.75
26185;PMS7003;20067;48.764;9.176;2023-03-05T11:03:51;31.50;23.75;12.75
26185;PMS7003;20067;48.764;9.176;2023-03-05T11:11:42;25.25;21.50;10.00
26185;PMS7003;20067;48.764;9.176;2023-03-05T11:14:32;33.75;26.25;13.00
26185;PMS7003;20067;48.764;9.176;2023-03-05T11:17:02;25.50;19.50;11.00
26185;PMS7003;20067;48.764;9.176;2023-03-05T11:19:47;21.25;21.25;10.75
26185;PMS7003;20067;48.764;9.176;2023-03-05T11:24:45;33.50;22.00;11.75
26185;PMS7003;20067;48.764;9.176;2023-03-05T11:27:42;22.00;20.00;10.00
26185;PMS7003;20067;48.764;9.176;2023-03-05T11:30:24;24.75;22.00;11.75
26185;PMS7003;20067;48.764;9.176;2023-03-05T11:32:56;29.00;24.00;12.00
26185;PMS7003;20067;48.764;9.176;2023-03-05T11:35:49;23.50;22.00;11.00
26185;PMS7003;20067;48.764;9.176;2023-03-05T11:38:24;33.50;23.75;12.00
26185;PMS7003;20067;48.764;9.176;2023-03-05T11:40:52;27.50;25.75;10.00
26185;PMS7003;20067;48.764;9.176;2023-03-05T11:43:24;32.25;25.50;11.50
26185;PMS7003;20067;48.764;9.176;2023-03-05T11:45:51;29.00;25.50;10.50
26185;PMS7003;20067;48.764;9.176;2023-03-05T11:48:31;26.50;22.50;12.00
26185;PMS7003;20067;48.764;9.176;2023-03-05T11:51:01;26.75;22.00;12.00
26185;PMS7003;20067;48.764;9.176;2023-03-05T11:53:32;22.25;19.00;10.00
26185;PMS7003;20067;48.764;9.176;2023-03-05T12:01:22;32.50;26.50;11.00
26185;PMS7003;20067;48.764;9.176;2023-03-05T12:03:50;34.00;25.75;13.00
26185;PMS7003;20067;48.764;9.176;2023-03-05T12:06:33;29.00;23.25;12.50
26185;PMS7003;20067;48.764;9.176;2023-03-05T12:09:26;36.00;26.50;13.50
26185;PMS7003;20067;48.764;9.176;2023-03-05T12:12:50;25.50;24.25;13.00
26185;PMS7003;20067;48.764;9.176;2023-03-05T12:14:55;31.25;21.50;12.00
26185;PMS7003;20067;48.764;9.176;2023-03-05T12:17:36;24.00;21.75;12.00
26185;PMS7003;20067;48.764;9.176;2023-03-05T12:22:41;26.00;22.25;12.00
26185;PMS7003;20067;48.764;9.176;2023-03-05T12:28:54;22.50;22.50;8.00
26185;PMS7003;20067;48.764;9.176;2023-03-05T12:31:00;22.00;19.00;8.25
26185;PMS7003;20067;48.764;9.176;2023-03-05T12:33:30;26.25;21.25;8.00
26185;PMS7003;20067;48.764;9.176;2023-03-05T12:38:50;24.25;21.50;8.00
26185;PMS7003;20067;48.764;9.176;2023-03-05T12:46:29;28.00;23.50;9.75
26185;PMS7003;20067;48.764;9.176;2023-03-05T12:51:54;25.00;25.00;12.50
26185;PMS7003;20067;48.764;9.176;2023-03-05T12:57:18;17.50;17.00;7.75
26185;PMS7003;20067;48.764;9.176;2023-03-05T12:59:49;26.50;22.00;10.50
26185;PMS7003;20067;48.764;9.176;2023-03-05T13:05:01;27.25;22.50;10.50
26185;PMS7003;20067;48.764;9.176;2023-03-05T13:07:32;24.00;22.75;10.50
26185;PMS7003;20067;48.764;9.176;2023-03-05T13:09:58;25.00;24.00;12.00
26185;PMS7003;20067;48.764;9.176;2023-03-05T13:12:25;23.50;20.00;10.00
26185;PMS7003;20067;48.764;9.176;2023-03-05T13:15:02;26.50;20.00;10.00
26185;PMS7003;20067;48.764;9.176;2023-03-05T13:17:30;22.25;19.50;9.00
26185;PMS7003;20067;48.764;9.176;2023-03-05T13:20:00;30.00;26.00;12.00
26185;PMS7003;20067;48.764;9.176;2023-03-05T13:22:30;26.50;19.00;9.00
26185;PMS7003;20067;48.764;9.176;2023-03-05T13:25:03;21.75;19.00;10.00
26185;PMS7003;20067;48.764;9.176;2023-03-05T13:27:40;26.50;22.00;8.50
26185;PMS7003;20067;48.764;9.176;2023-03-05T13:30:19;27.00;19.00;10.00
26185;PMS7003;20067;48.764;9.176;2023-03-05T13:32:48;26.75;19.25;10.25
26185;PMS7003;20067;48.764;9.176;2023-03-05T13:35:16;22.00;19.50;10.00
26185;PMS7003;20067;48.764;9.176;2023-03-05T13:37:42;21.00;19.25;10.50
26185;PMS7003;20067;48.764;9.176;2023-03-05T13:42:51;25.00;18.50;10.00
26185;PMS7003;20067;48.764;9.176;2023-03-05T13:45:27;23.25;21.00;10.00
26185;PMS7003;20067;48.764;9.176;2023-03-05T13:47:55;29.00;20.75;10.50
26185;PMS7003;20067;48.764;9.176;2023-03-05T13:50:24;27.50;22.50;12.00
26185;PMS7003;20067;48.764;9.176;2023-03-05T13:52:53;23.00;21.00;11.00
26185;PMS7003;20067;48.764;9.176;2023-03-05T13:55:19;24.75;21.00;10.25
26185;PMS7003;20067;48.764;9.176;2023-03-05T13:57:46;25.50;19.75;9.50
26185;PMS7003;20067;48.764;9.176;2023-03-05T14:00:37;20.50;18.25;7.00
26185;PMS7003;20067;48.764;9.176;2023-03-05T14:03:36;21.75;19.00;10.00
26185;PMS7003;20067;48.764;9.176;2023-03-05T14:05:55;20.00;14.25;7.00
26185;PMS7003;20067;48.764;9.176;2023-03-05T14:08:21;25.50;24.50;11.00
26185;PMS7003;20067;48.764;9.176;2023-03-05T14:10:49;20.25;18.00;9.00
26185;PMS7003;20067;48.764;9.176;2023-03-05T14:13:17;20.00;15.00;9.00
26185;PMS7003;20067;48.764;9.176;2023-03-05T14:18:28;24.25;20.50;7.50
26185;PMS7003;20067;48.764;9.176;2023-03-05T14:21:02;24.25;20.75;9.00
26185;PMS7003;20067;48.764;9.176;2023-03-05T14:28:56;20.75;19.25;7.50
26185;PMS7003;20067;48.764;9.176;2023-03-05T14:31:22;20.50;19.25;8.00
26185;PMS7003;20067;48.764;9.176;2023-03-05T14:33:50;26.00;25.25;10.00
26185;PMS7003;20067;48.764;9.176;2023-03-05T14:36:34;19.50;18.50;8.50
26185;PMS7003;20067;48.764;9.176;2023-03-05T14:39:00;22.50;22.50;10.50
26185;PMS7003;20067;48.764;9.176;2023-03-05T14:44:12;20.50;17.50;9.50
26185;PMS7003;20067;48.764;9.176;2023-03-05T14:46:39;22.50;19.75;10.00
26185;PMS7003;20067;48.764;9.176;2023-03-05T14:49:06;22.75;16.75;7.50
26185;PMS7003;20067;48.764;9.176;2023-03-05T14:51:32;29.50;24.25;12.00
26185;PMS7003;20067;48.764;9.176;2023-03-05T14:54:02;26.50;21.25;10.50
26185;PMS7003;20067;48.764;9.176;2023-03-05T14:56:28;32.50;25.00;11.50
26185;PMS7003;20067;48.764;9.176;2023-03-05T14:59:00;31.25;21.75;9.00
26185;PMS7003;20067;48.764;9.176;2023-03-05T15:01:25;25.50;19.00;8.00
26185;PMS7003;20067;48.764;9.176;2023-03-05T15:03:51;24.50;19.00;9.50
26185;PMS7003;20067;48.764;9.176;2023-03-05T15:06:29;20.25;20.25;10.50
26185;PMS7003;20067;48.764;9.176;2023-03-05T15:08:58;26.00;26.00;11.50
26185;PMS7003;20067;48.764;9.176;2023-03-05T15:11:24;20.75;19.00;9.00